sensor_id;sensor_type;location;lat;lon;timestamp;P1;durP1;ratioP1;P2;durP2;ratioP2
2187;SDS011;1100;52.014;8.540;2022-08-19T00:00:13;8.20;;;3.90;;
2187;SDS011;1100;52.014;8.540;2022-08-19T00:02:40;8.63;;;4.15;;
2187;SDS011;1100;52.014;8.540;2022-08-19T00:05:07;8.73;;;3.65;;
2187;SDS011;1100;52.014;8.540;2022-08-19T00:07:34;8.63;;;3.92;;
2187;SDS011;1100;52.014;8.540;2022-08-19T00:09:59;9.07;;;3.93;;
2187;SDS011;1100;52.014;8.540;2022-08-19T00:12:25;8.03;;;3.80;;
2187;SDS011;1100;52.014;8.540;2022-08-19T00:14:50;9.75;;;3.83;;
2187;SDS011;1100;52.014;8.540;2022-08-19T00:17:17;8.50;;;3.90;;
2187;SDS011;1100;52.014;8.540;2022-08-19T00:19:43;10.13;;;3.87;;
2187;SDS011;1100;52.014;8.540;2022-08-19T00:22:08;8.53;;;3.57;;
2187;SDS011;1100;52.014;8.540;2022-08-19T00:24:34;8.13;;;3.90;;
2187;SDS011;1100;52.014;8.540;2022-08-19T00:27:00;10.05;;;3.95;;
2187;SDS011;1100;52.014;8.540;2022-08-19T00:29:27;6.93;;;3.35;;
2187;SDS011;1100;52.014;8.540;2022-08-19T00:31:53;8.20;;;3.73;;
2187;SDS011;1100;52.014;8.540;2022-08-19T00:34:20;7.50;;;4.18;;
2187;SDS011;1100;52.014;8.540;2022-08-19T00:36:46;8.35;;;3.60;;
2187;SDS011;1100;52.014;8.540;2022-08-19T00:39:12;8.60;;;3.90;;
2187;SDS011;1100;52.014;8.540;2022-08-19T00:41:39;9.07;;;4.17;;
2187;SDS011;1100;52.014;8.540;2022-08-19T00:44:13;9.38;;;4.13;;
2187;SDS011;1100;52.014;8.540;2022-08-19T00:46:52;6.07;;;3.45;;
2187;SDS011;1100;52.014;8.540;2022-08-19T00:52:00;9.55;;;4.50;;
2187;SDS011;1100;52.014;8.540;2022-08-19T00:54:29;9.03;;;4.10;;
2187;SDS011;1100;52.014;8.540;2022-08-19T00:56:56;9.93;;;4.95;;
2187;SDS011;1100;52.014;8.540;2022-08-19T00:59:22;9.40;;;4.75;;
2187;SDS011;1100;52.014;8.540;2022-08-19T01:01:48;9.75;;;4.15;;
2187;SDS011;1100;52.014;8.540;2022-08-19T01:04:13;9.73;;;4.40;;
2187;SDS011;1100;52.014;8.540;2022-08-19T01:06:39;8.43;;;4.30;;
2187;SDS011;1100;52.014;8.540;2022-08-19T01:09:08;8.15;;;4.18;;
2187;SDS011;1100;52.014;8.540;2022-08-19T01:11:35;11.93;;;4.80;;
2187;SDS011;1100;52.014;8.540;2022-08-19T01:14:04;9.43;;;4.40;;
2187;SDS011;1100;52.014;8.540;2022-08-19T01:16:30;13.07;;;5.28;;
2187;SDS011;1100;52.014;8.540;2022-08-19T01:18:58;13.45;;;5.80;;
2187;SDS011;1100;52.014;8.540;2022-08-19T01:21:30;11.30;;;5.83;;
2187;SDS011;1100;52.014;8.540;2022-08-19T01:23:55;12.03;;;6.30;;
2187;SDS011;1100;52.014;8.540;2022-08-19T01:26:22;11.65;;;6.15;;
2187;SDS011;1100;52.014;8.540;2022-08-19T01:28:50;14.00;;;6.60;;
2187;SDS011;1100;52.014;8.540;2022-08-19T01:31:20;13.55;;;6.22;;
2187;SDS011;1100;52.014;8.540;2022-08-19T01:33:48;11.55;;;6.15;;
2187;SDS011;1100;52.014;8.540;2022-08-19T01:36:21;11.07;;;5.68;;
2187;SDS011;1100;52.014;8.540;2022-08-19T01:38:51;10.25;;;5.50;;
2187;SDS011;1100;52.014;8.540;2022-08-19T01:41:17;10.93;;;5.60;;
2187;SDS011;1100;52.014;8.540;2022-08-19T01:43:43;12.65;;;5.70;;
2187;SDS011;1100;52.014;8.540;2022-08-19T01:46:09;13.55;;;5.65;;
2187;SDS011;1100;52.014;8.540;2022-08-19T01:48:41;13.10;;;5.97;;
2187;SDS011;1100;52.014;8.540;2022-08-19T01:51:08;11.17;;;5.53;;
2187;SDS011;1100;52.014;8.540;2022-08-19T01:53:35;11.75;;;5.80;;
2187;SDS011;1100;52.014;8.540;2022-08-19T01:56:01;11.00;;;5.68;;
2187;SDS011;1100;52.014;8.540;2022-08-19T01:58:29;12.23;;;5.22;;
2187;SDS011;1100;52.014;8.540;2022-08-19T02:01:02;10.93;;;5.10;;
2187;SDS011;1100;52.014;8.540;2022-08-19T02:03:29;11.88;;;5.80;;
2187;SDS011;1100;52.014;8.540;2022-08-19T02:05:55;11.37;;;5.90;;
2187;SDS011;1100;52.014;8.540;2022-08-19T02:08:22;10.32;;;5.20;;
2187;SDS011;1100;52.014;8.540;2022-08-19T02:10:47;10.27;;;5.93;;
2187;SDS011;1100;52.014;8.540;2022-08-19T02:13:14;10.85;;;5.22;;
2187;SDS011;1100;52.014;8.540;2022-08-19T02:15:40;11.90;;;5.13;;
2187;SDS011;1100;52.014;8.540;2022-08-19T02:18:06;11.90;;;5.37;;
2187;SDS011;1100;52.014;8.540;2022-08-19T02:20:32;11.55;;;5.35;;
2187;SDS011;1100;52.014;8.540;2022-08-19T02:22:57;12.07;;;5.00;;
2187;SDS011;1100;52.014;8.540;2022-08-19T02:25:23;10.40;;;5.57;;
2187;SDS011;1100;52.014;8.540;2022-08-19T02:27:48;11.73;;;5.65;;
2187;SDS011;1100;52.014;8.540;2022-08-19T02:30:14;11.03;;;5.30;;
2187;SDS011;1100;52.014;8.540;2022-08-19T02:32:41;13.18;;;5.75;;
2187;SDS011;1100;52.014;8.540;2022-08-19T02:35:07;9.60;;;5.28;;
2187;SDS011;1100;52.014;8.540;2022-08-19T02:37:33;11.07;;;5.53;;
2187;SDS011;1100;52.014;8.540;2022-08-19T02:40:18;10.38;;;4.75;;
2187;SDS011;1100;52.014;8.540;2022-08-19T02:42:44;10.68;;;5.28;;
2187;SDS011;1100;52.014;8.540;2022-08-19T02:45:11;12.52;;;5.97;;
2187;SDS011;1100;52.014;8.540;2022-08-19T02:47:38;13.57;;;5.13;;
2187;SDS011;1100;52.014;8.540;2022-08-19T02:50:07;9.85;;;5.35;;
2187;SDS011;1100;52.014;8.540;2022-08-19T02:52:33;9.80;;;5.22;;
2187;SDS011;1100;52.014;8.540;2022-08-19T02:55:00;11.47;;;5.63;;
2187;SDS011;1100;52.014;8.540;2022-08-19T02:57:26;11.57;;;5.70;;
2187;SDS011;1100;52.014;8.540;2022-08-19T02:59:52;14.25;;;6.22;;
2187;SDS011;1100;52.014;8.540;2022-08-19T03:02:17;11.55;;;6.00;;
2187;SDS011;1100;52.014;8.540;2022-08-19T03:04:43;12.37;;;6.60;;
2187;SDS011;1100;52.014;8.540;2022-08-19T03:07:09;12.50;;;6.47;;
2187;SDS011;1100;52.014;8.540;2022-08-19T03:09:36;11.52;;;5.75;;
2187;SDS011;1100;52.014;8.540;2022-08-19T03:12:02;10.30;;;6.28;;
2187;SDS011;1100;52.014;8.540;2022-08-19T03:14:30;11.63;;;5.90;;
2187;SDS011;1100;52.014;8.540;2022-08-19T03:16:56;12.88;;;6.28;;
2187;SDS011;1100;52.014;8.540;2022-08-19T03:19:22;12.35;;;6.70;;
2187;SDS011;1100;52.014;8.540;2022-08-19T03:21:48;11.07;;;6.40;;
2187;SDS011;1100;52.014;8.540;2022-08-19T03:24:14;13.13;;;6.72;;
2187;SDS011;1100;52.014;8.540;2022-08-19T03:26:41;12.40;;;6.57;;
2187;SDS011;1100;52.014;8.540;2022-08-19T03:29:08;11.45;;;5.90;;
2187;SDS011;1100;52.014;8.540;2022-08-19T03:31:36;11.80;;;6.10;;
2187;SDS011;1100;52.014;8.540;2022-08-19T03:34:04;12.68;;;6.18;;
2187;SDS011;1100;52.014;8.540;2022-08-19T03:36:29;10.10;;;5.95;;
2187;SDS011;1100;52.014;8.540;2022-08-19T03:38:56;10.97;;;6.27;;
2187;SDS011;1100;52.014;8.540;2022-08-19T03:41:24;12.70;;;6.07;;
2187;SDS011;1100;52.014;8.540;2022-08-19T03:43:54;11.00;;;6.10;;
2187;SDS011;1100;52.014;8.540;2022-08-19T03:46:20;11.93;;;6.13;;
2187;SDS011;1100;52.014;8.540;2022-08-19T03:48:48;12.17;;;6.40;;
2187;SDS011;1100;52.014;8.540;2022-08-19T03:51:20;10.63;;;5.75;;
2187;SDS011;1100;52.014;8.540;2022-08-19T03:53:47;11.75;;;6.45;;
2187;SDS011;1100;52.014;8.540;2022-08-19T03:56:13;12.75;;;7.20;;
2187;SDS011;1100;52.014;8.540;2022-08-19T03:58:40;12.20;;;6.30;;
2187;SDS011;1100;52.014;8.540;2022-08-19T04:01:09;12.32;;;6.80;;
2187;SDS011;1100;52.014;8.540;2022-08-19T04:03:36;14.10;;;6.38;;
2187;SDS011;1100;52.014;8.540;2022-08-19T04:06:16;11.23;;;6.40;;
2187;SDS011;1100;52.014;8.540;2022-08-19T04:08:44;13.35;;;6.75;;
2187;SDS011;1100;52.014;8.540;2022-08-19T04:11:12;14.17;;;6.47;;
2187;SDS011;1100;52.014;8.540;2022-08-19T04:13:40;12.23;;;6.07;;
2187;SDS011;1100;52.014;8.540;2022-08-19T04:16:07;11.77;;;6.70;;
2187;SDS011;1100;52.014;8.540;2022-08-19T04:18:34;12.82;;;6.35;;
2187;SDS011;1100;52.014;8.540;2022-08-19T04:21:00;10.73;;;5.80;;
2187;SDS011;1100;52.014;8.540;2022-08-19T04:23:26;10.27;;;6.00;;
2187;SDS011;1100;52.014;8.540;2022-08-19T04:25:53;11.17;;;6.00;;
2187;SDS011;1100;52.014;8.540;2022-08-19T04:28:18;11.52;;;5.55;;
2187;SDS011;1100;52.014;8.540;2022-08-19T04:30:48;12.13;;;5.67;;
2187;SDS011;1100;52.014;8.540;2022-08-19T04:33:17;11.25;;;5.72;;
2187;SDS011;1100;52.014;8.540;2022-08-19T04:35:45;11.15;;;5.75;;
2187;SDS011;1100;52.014;8.540;2022-08-19T04:38:13;10.43;;;5.68;;
2187;SDS011;1100;52.014;8.540;2022-08-19T04:40:45;16.02;;;6.43;;
2187;SDS011;1100;52.014;8.540;2022-08-19T04:43:32;10.33;;;5.90;;
2187;SDS011;1100;52.014;8.540;2022-08-19T04:45:58;13.80;;;5.97;;
2187;SDS011;1100;52.014;8.540;2022-08-19T04:48:29;12.82;;;5.78;;
2187;SDS011;1100;52.014;8.540;2022-08-19T04:50:55;12.83;;;6.23;;
2187;SDS011;1100;52.014;8.540;2022-08-19T04:55:54;13.40;;;6.00;;
2187;SDS011;1100;52.014;8.540;2022-08-19T04:58:21;10.87;;;5.60;;
2187;SDS011;1100;52.014;8.540;2022-08-19T05:00:47;10.88;;;6.03;;
2187;SDS011;1100;52.014;8.540;2022-08-19T05:03:13;8.93;;;5.60;;
2187;SDS011;1100;52.014;8.540;2022-08-19T05:05:41;11.40;;;5.80;;
2187;SDS011;1100;52.014;8.540;2022-08-19T05:08:08;11.10;;;6.07;;
2187;SDS011;1100;52.014;8.540;2022-08-19T05:10:39;11.63;;;5.95;;
2187;SDS011;1100;52.014;8.540;2022-08-19T05:13:05;12.23;;;5.67;;
2187;SDS011;1100;52.014;8.540;2022-08-19T05:15:31;10.10;;;6.22;;
2187;SDS011;1100;52.014;8.540;2022-08-19T05:17:56;11.47;;;5.67;;
2187;SDS011;1100;52.014;8.540;2022-08-19T05:20:40;10.07;;;5.55;;
2187;SDS011;1100;52.014;8.540;2022-08-19T05:23:24;9.82;;;5.57;;
2187;SDS011;1100;52.014;8.540;2022-08-19T05:25:50;11.93;;;5.53;;
2187;SDS011;1100;52.014;8.540;2022-08-19T05:28:16;14.68;;;6.10;;
2187;SDS011;1100;52.014;8.540;2022-08-19T05:30:42;11.23;;;5.37;;
2187;SDS011;1100;52.014;8.540;2022-08-19T05:33:09;13.10;;;4.60;;
2187;SDS011;1100;52.014;8.540;2022-08-19T05:35:36;10.50;;;4.30;;
2187;SDS011;1100;52.014;8.540;2022-08-19T05:38:02;7.00;;;3.42;;
2187;SDS011;1100;52.014;8.540;2022-08-19T05:40:28;7.57;;;3.20;;
2187;SDS011;1100;52.014;8.540;2022-08-19T05:42:53;7.57;;;2.87;;
2187;SDS011;1100;52.014;8.540;2022-08-19T05:45:19;7.77;;;3.27;;
2187;SDS011;1100;52.014;8.540;2022-08-19T05:47:45;5.22;;;2.63;;
2187;SDS011;1100;52.014;8.540;2022-08-19T05:50:11;5.20;;;2.57;;
2187;SDS011;1100;52.014;8.540;2022-08-19T05:52:36;6.03;;;2.40;;
2187;SDS011;1100;52.014;8.540;2022-08-19T05:55:02;6.18;;;2.55;;
2187;SDS011;1100;52.014;8.540;2022-08-19T05:57:28;6.10;;;2.60;;
2187;SDS011;1100;52.014;8.540;2022-08-19T05:59:54;6.05;;;2.60;;
2187;SDS011;1100;52.014;8.540;2022-08-19T06:02:19;7.33;;;2.40;;
2187;SDS011;1100;52.014;8.540;2022-08-19T06:04:45;5.33;;;2.40;;
2187;SDS011;1100;52.014;8.540;2022-08-19T06:07:10;7.13;;;2.53;;
2187;SDS011;1100;52.014;8.540;2022-08-19T06:09:36;6.32;;;2.47;;
2187;SDS011;1100;52.014;8.540;2022-08-19T06:12:02;4.47;;;2.10;;
2187;SDS011;1100;52.014;8.540;2022-08-19T06:14:30;6.22;;;2.55;;
2187;SDS011;1100;52.014;8.540;2022-08-19T06:16:59;6.20;;;2.67;;
2187;SDS011;1100;52.014;8.540;2022-08-19T06:19:26;4.80;;;2.00;;
2187;SDS011;1100;52.014;8.540;2022-08-19T06:21:54;6.93;;;2.30;;
2187;SDS011;1100;52.014;8.540;2022-08-19T06:24:21;5.63;;;2.23;;
2187;SDS011;1100;52.014;8.540;2022-08-19T06:26:49;5.35;;;2.10;;
2187;SDS011;1100;52.014;8.540;2022-08-19T06:29:18;6.20;;;2.20;;
2187;SDS011;1100;52.014;8.540;2022-08-19T06:31:46;5.80;;;2.28;;
2187;SDS011;1100;52.014;8.540;2022-08-19T06:34:14;4.63;;;2.10;;
2187;SDS011;1100;52.014;8.540;2022-08-19T06:36:41;4.80;;;2.05;;
2187;SDS011;1100;52.014;8.540;2022-08-19T06:39:16;5.32;;;2.40;;
2187;SDS011;1100;52.014;8.540;2022-08-19T06:41:50;6.27;;;2.20;;
2187;SDS011;1100;52.014;8.540;2022-08-19T06:44:18;5.30;;;2.10;;
2187;SDS011;1100;52.014;8.540;2022-08-19T06:46:45;5.10;;;2.40;;
2187;SDS011;1100;52.014;8.540;2022-08-19T06:49:10;6.03;;;2.60;;
2187;SDS011;1100;52.014;8.540;2022-08-19T06:51:39;5.05;;;2.10;;
2187;SDS011;1100;52.014;8.540;2022-08-19T06:54:05;4.80;;;2.17;;
2187;SDS011;1100;52.014;8.540;2022-08-19T06:56:31;5.40;;;2.40;;
2187;SDS011;1100;52.014;8.540;2022-08-19T06:59:03;5.00;;;2.10;;
2187;SDS011;1100;52.014;8.540;2022-08-19T07:01:33;6.22;;;2.15;;
2187;SDS011;1100;52.014;8.540;2022-08-19T07:04:02;5.05;;;2.22;;
2187;SDS011;1100;52.014;8.540;2022-08-19T07:06:28;4.50;;;2.20;;
2187;SDS011;1100;52.014;8.540;2022-08-19T07:08:56;5.38;;;2.20;;
2187;SDS011;1100;52.014;8.540;2022-08-19T07:11:23;5.35;;;2.50;;
2187;SDS011;1100;52.014;8.540;2022-08-19T07:13:48;4.30;;;2.40;;
2187;SDS011;1100;52.014;8.540;2022-08-19T07:16:15;5.17;;;2.07;;
2187;SDS011;1100;52.014;8.540;2022-08-19T07:18:43;4.95;;;1.90;;
2187;SDS011;1100;52.014;8.540;2022-08-19T07:21:13;4.60;;;2.13;;
2187;SDS011;1100;52.014;8.540;2022-08-19T07:23:45;5.20;;;2.33;;
2187;SDS011;1100;52.014;8.540;2022-08-19T07:26:18;4.22;;;2.13;;
2187;SDS011;1100;52.014;8.540;2022-08-19T07:28:47;4.17;;;2.00;;
2187;SDS011;1100;52.014;8.540;2022-08-19T07:31:14;5.50;;;2.00;;
2187;SDS011;1100;52.014;8.540;2022-08-19T07:33:43;4.78;;;1.90;;
2187;SDS011;1100;52.014;8.540;2022-08-19T07:36:09;4.55;;;1.83;;
2187;SDS011;1100;52.014;8.540;2022-08-19T07:38:37;4.75;;;2.30;;
2187;SDS011;1100;52.014;8.540;2022-08-19T07:41:06;5.20;;;2.30;;
2187;SDS011;1100;52.014;8.540;2022-08-19T07:43:32;4.72;;;2.28;;
2187;SDS011;1100;52.014;8.540;2022-08-19T07:45:57;4.90;;;2.40;;
2187;SDS011;1100;52.014;8.540;2022-08-19T07:48:24;4.38;;;1.88;;
2187;SDS011;1100;52.014;8.540;2022-08-19T07:50:54;4.38;;;1.92;;
2187;SDS011;1100;52.014;8.540;2022-08-19T07:53:22;4.37;;;2.20;;
2187;SDS011;1100;52.014;8.540;2022-08-19T07:55:48;4.57;;;2.10;;
2187;SDS011;1100;52.014;8.540;2022-08-19T07:58:16;3.88;;;1.98;;
2187;SDS011;1100;52.014;8.540;2022-08-19T08:00:44;4.55;;;2.28;;
2187;SDS011;1100;52.014;8.540;2022-08-19T08:03:12;4.30;;;2.20;;
2187;SDS011;1100;52.014;8.540;2022-08-19T08:05:40;4.80;;;1.90;;
2187;SDS011;1100;52.014;8.540;2022-08-19T08:08:24;6.57;;;2.33;;
2187;SDS011;1100;52.014;8.540;2022-08-19T08:11:08;4.82;;;2.50;;
2187;SDS011;1100;52.014;8.540;2022-08-19T08:13:35;7.85;;;3.10;;
2187;SDS011;1100;52.014;8.540;2022-08-19T08:16:01;6.83;;;3.10;;
2187;SDS011;1100;52.014;8.540;2022-08-19T08:18:27;9.20;;;3.53;;
2187;SDS011;1100;52.014;8.540;2022-08-19T08:20:54;7.57;;;3.47;;
2187;SDS011;1100;52.014;8.540;2022-08-19T08:23:20;7.80;;;3.17;;
2187;SDS011;1100;52.014;8.540;2022-08-19T08:25:50;9.15;;;3.38;;
2187;SDS011;1100;52.014;8.540;2022-08-19T08:28:18;6.10;;;3.55;;
2187;SDS011;1100;52.014;8.540;2022-08-19T08:30:45;5.93;;;3.00;;
2187;SDS011;1100;52.014;8.540;2022-08-19T08:33:12;7.20;;;2.90;;
2187;SDS011;1100;52.014;8.540;2022-08-19T08:35:39;5.82;;;3.33;;
2187;SDS011;1100;52.014;8.540;2022-08-19T08:38:07;6.32;;;2.38;;
2187;SDS011;1100;52.014;8.540;2022-08-19T08:40:34;8.03;;;3.10;;
2187;SDS011;1100;52.014;8.540;2022-08-19T08:43:08;7.43;;;3.47;;
2187;SDS011;1100;52.014;8.540;2022-08-19T08:46:08;6.88;;;2.85;;
2187;SDS011;1100;52.014;8.540;2022-08-19T08:48:53;6.13;;;2.75;;
2187;SDS011;1100;52.014;8.540;2022-08-19T08:51:29;5.87;;;2.73;;
2187;SDS011;1100;52.014;8.540;2022-08-19T08:53:59;8.60;;;3.00;;
2187;SDS011;1100;52.014;8.540;2022-08-19T08:56:26;8.77;;;3.00;;
2187;SDS011;1100;52.014;8.540;2022-08-19T08:59:03;10.17;;;4.00;;
2187;SDS011;1100;52.014;8.540;2022-08-19T09:01:33;6.53;;;2.50;;
2187;SDS011;1100;52.014;8.540;2022-08-19T09:03:58;5.67;;;2.50;;
2187;SDS011;1100;52.014;8.540;2022-08-19T09:06:27;6.45;;;2.88;;
2187;SDS011;1100;52.014;8.540;2022-08-19T09:11:38;6.13;;;2.83;;
2187;SDS011;1100;52.014;8.540;2022-08-19T09:14:18;5.75;;;2.53;;
2187;SDS011;1100;52.014;8.540;2022-08-19T09:16:54;7.43;;;3.22;;
2187;SDS011;1100;52.014;8.540;2022-08-19T09:19:19;7.10;;;2.50;;
2187;SDS011;1100;52.014;8.540;2022-08-19T09:21:44;7.10;;;2.87;;
2187;SDS011;1100;52.014;8.540;2022-08-19T09:24:10;6.28;;;2.65;;
2187;SDS011;1100;52.014;8.540;2022-08-19T09:26:36;6.27;;;2.60;;
2187;SDS011;1100;52.014;8.540;2022-08-19T09:29:01;5.83;;;2.70;;
2187;SDS011;1100;52.014;8.540;2022-08-19T09:31:30;5.10;;;2.65;;
2187;SDS011;1100;52.014;8.540;2022-08-19T09:33:57;5.13;;;2.55;;
2187;SDS011;1100;52.014;8.540;2022-08-19T09:36:25;6.32;;;2.50;;
2187;SDS011;1100;52.014;8.540;2022-08-19T09:38:54;4.70;;;2.20;;
2187;SDS011;1100;52.014;8.540;2022-08-19T09:41:24;6.63;;;2.90;;
2187;SDS011;1100;52.014;8.540;2022-08-19T09:43:50;5.55;;;2.70;;
2187;SDS011;1100;52.014;8.540;2022-08-19T09:46:17;6.05;;;2.65;;
2187;SDS011;1100;52.014;8.540;2022-08-19T09:48:46;5.68;;;2.70;;
2187;SDS011;1100;52.014;8.540;2022-08-19T09:51:14;5.00;;;2.55;;
2187;SDS011;1100;52.014;8.540;2022-08-19T09:53:41;5.03;;;2.60;;
2187;SDS011;1100;52.014;8.540;2022-08-19T09:56:08;5.75;;;2.50;;
2187;SDS011;1100;52.014;8.540;2022-08-19T09:58:34;6.53;;;3.13;;
2187;SDS011;1100;52.014;8.540;2022-08-19T10:01:00;5.22;;;2.55;;
2187;SDS011;1100;52.014;8.540;2022-08-19T10:03:27;6.55;;;2.90;;
2187;SDS011;1100;52.014;8.540;2022-08-19T10:05:54;6.25;;;2.58;;
2187;SDS011;1100;52.014;8.540;2022-08-19T10:08:22;5.43;;;2.75;;
2187;SDS011;1100;52.014;8.540;2022-08-19T10:10:53;7.03;;;2.80;;
2187;SDS011;1100;52.014;8.540;2022-08-19T10:13:21;5.35;;;2.90;;
2187;SDS011;1100;52.014;8.540;2022-08-19T10:15:50;5.68;;;2.65;;
2187;SDS011;1100;52.014;8.540;2022-08-19T10:18:16;7.68;;;2.85;;
2187;SDS011;1100;52.014;8.540;2022-08-19T10:20:43;6.63;;;2.65;;
2187;SDS011;1100;52.014;8.540;2022-08-19T10:23:10;5.90;;;2.73;;
2187;SDS011;1100;52.014;8.540;2022-08-19T10:25:36;6.93;;;2.67;;
2187;SDS011;1100;52.014;8.540;2022-08-19T10:28:02;5.15;;;2.30;;
2187;SDS011;1100;52.014;8.540;2022-08-19T10:30:28;7.27;;;2.40;;
2187;SDS011;1100;52.014;8.540;2022-08-19T10:32:53;5.60;;;2.60;;
2187;SDS011;1100;52.014;8.540;2022-08-19T10:35:19;4.23;;;2.20;;
2187;SDS011;1100;52.014;8.540;2022-08-19T10:37:45;4.57;;;2.23;;
2187;SDS011;1100;52.014;8.540;2022-08-19T10:40:10;4.83;;;2.23;;
2187;SDS011;1100;52.014;8.540;2022-08-19T10:42:36;5.63;;;2.30;;
2187;SDS011;1100;52.014;8.540;2022-08-19T10:45:02;5.57;;;2.47;;
2187;SDS011;1100;52.014;8.540;2022-08-19T10:47:31;5.30;;;2.50;;
2187;SDS011;1100;52.014;8.540;2022-08-19T10:49:57;5.32;;;2.17;;
2187;SDS011;1100;52.014;8.540;2022-08-19T10:52:44;5.40;;;2.55;;
2187;SDS011;1100;52.014;8.540;2022-08-19T10:55:11;8.93;;;5.40;;
2187;SDS011;1100;52.014;8.540;2022-08-19T10:57:55;10.63;;;6.97;;
2187;SDS011;1100;52.014;8.540;2022-08-19T11:00:21;9.43;;;6.10;;
2187;SDS011;1100;52.014;8.540;2022-08-19T11:02:48;11.52;;;7.10;;
2187;SDS011;1100;52.014;8.540;2022-08-19T11:05:14;13.17;;;7.80;;
2187;SDS011;1100;52.014;8.540;2022-08-19T11:07:40;7.10;;;3.92;;
2187;SDS011;1100;52.014;8.540;2022-08-19T11:10:06;10.68;;;7.47;;
2187;SDS011;1100;52.014;8.540;2022-08-19T11:12:32;6.68;;;3.80;;
2187;SDS011;1100;52.014;8.540;2022-08-19T11:14:58;7.80;;;4.70;;
2187;SDS011;1100;52.014;8.540;2022-08-19T11:17:23;6.35;;;3.83;;
2187;SDS011;1100;52.014;8.540;2022-08-19T11:19:49;6.30;;;3.43;;
2187;SDS011;1100;52.014;8.540;2022-08-19T11:22:15;6.55;;;3.10;;
2187;SDS011;1100;52.014;8.540;2022-08-19T11:24:40;5.10;;;2.50;;
2187;SDS011;1100;52.014;8.540;2022-08-19T11:27:07;5.23;;;2.20;;
2187;SDS011;1100;52.014;8.540;2022-08-19T11:29:34;4.82;;;2.03;;
2187;SDS011;1100;52.014;8.540;2022-08-19T11:32:03;5.55;;;2.30;;
2187;SDS011;1100;52.014;8.540;2022-08-19T11:34:30;4.97;;;2.20;;
2187;SDS011;1100;52.014;8.540;2022-08-19T11:36:56;4.95;;;2.30;;
2187;SDS011;1100;52.014;8.540;2022-08-19T11:39:24;4.88;;;2.33;;
2187;SDS011;1100;52.014;8.540;2022-08-19T11:41:51;4.68;;;2.20;;
2187;SDS011;1100;52.014;8.540;2022-08-19T11:44:16;4.30;;;2.10;;
2187;SDS011;1100;52.014;8.540;2022-08-19T11:46:42;4.03;;;2.03;;
2187;SDS011;1100;52.014;8.540;2022-08-19T11:49:11;7.53;;;2.30;;
2187;SDS011;1100;52.014;8.540;2022-08-19T11:51:38;4.53;;;2.00;;
2187;SDS011;1100;52.014;8.540;2022-08-19T11:54:04;4.55;;;2.03;;
2187;SDS011;1100;52.014;8.540;2022-08-19T11:56:31;5.32;;;2.35;;
2187;SDS011;1100;52.014;8.540;2022-08-19T11:58:57;4.80;;;2.07;;
2187;SDS011;1100;52.014;8.540;2022-08-19T12:01:23;4.97;;;2.25;;
2187;SDS011;1100;52.014;8.540;2022-08-19T12:03:50;4.95;;;1.88;;
2187;SDS011;1100;52.014;8.540;2022-08-19T12:06:19;4.20;;;2.00;;
2187;SDS011;1100;52.014;8.540;2022-08-19T12:08:54;4.38;;;1.88;;
2187;SDS011;1100;52.014;8.540;2022-08-19T12:11:21;4.97;;;2.63;;
2187;SDS011;1100;52.014;8.540;2022-08-19T12:13:47;4.72;;;2.05;;
2187;SDS011;1100;52.014;8.540;2022-08-19T12:16:14;5.00;;;2.63;;
2187;SDS011;1100;52.014;8.540;2022-08-19T12:18:42;4.75;;;2.33;;
2187;SDS011;1100;52.014;8.540;2022-08-19T12:21:11;5.65;;;2.60;;
2187;SDS011;1100;52.014;8.540;2022-08-19T12:23:38;4.70;;;2.27;;
2187;SDS011;1100;52.014;8.540;2022-08-19T12:26:05;4.50;;;2.05;;
2187;SDS011;1100;52.014;8.540;2022-08-19T12:28:30;5.85;;;2.50;;
2187;SDS011;1100;52.014;8.540;2022-08-19T12:30:56;4.70;;;2.30;;
2187;SDS011;1100;52.014;8.540;2022-08-19T12:33:22;4.72;;;2.17;;
2187;SDS011;1100;52.014;8.540;2022-08-19T12:35:50;4.80;;;2.10;;
2187;SDS011;1100;52.014;8.540;2022-08-19T12:38:16;5.15;;;2.40;;
2187;SDS011;1100;52.014;8.540;2022-08-19T12:40:41;5.87;;;2.30;;
2187;SDS011;1100;52.014;8.540;2022-08-19T12:43:10;5.67;;;2.20;;
2187;SDS011;1100;52.014;8.540;2022-08-19T12:45:36;5.00;;;2.28;;
2187;SDS011;1100;52.014;8.540;2022-08-19T12:48:02;4.85;;;2.47;;
2187;SDS011;1100;52.014;8.540;2022-08-19T12:50:28;6.20;;;2.30;;
2187;SDS011;1100;52.014;8.540;2022-08-19T12:52:56;6.45;;;2.30;;
2187;SDS011;1100;52.014;8.540;2022-08-19T12:55:22;4.88;;;2.47;;
2187;SDS011;1100;52.014;8.540;2022-08-19T12:57:47;5.70;;;2.30;;
2187;SDS011;1100;52.014;8.540;2022-08-19T13:00:19;4.33;;;2.27;;
2187;SDS011;1100;52.014;8.540;2022-08-19T13:02:46;5.10;;;2.30;;
2187;SDS011;1100;52.014;8.540;2022-08-19T13:05:17;5.07;;;2.30;;
2187;SDS011;1100;52.014;8.540;2022-08-19T13:07:46;4.72;;;2.50;;
2187;SDS011;1100;52.014;8.540;2022-08-19T13:10:12;6.17;;;2.43;;
2187;SDS011;1100;52.014;8.540;2022-08-19T13:12:40;4.87;;;2.53;;
2187;SDS011;1100;52.014;8.540;2022-08-19T13:15:07;7.05;;;2.30;;
2187;SDS011;1100;52.014;8.540;2022-08-19T13:17:33;4.95;;;2.17;;
2187;SDS011;1100;52.014;8.540;2022-08-19T13:19:59;5.32;;;2.22;;
2187;SDS011;1100;52.014;8.540;2022-08-19T13:22:24;4.40;;;2.10;;
2187;SDS011;1100;52.014;8.540;2022-08-19T13:24:50;4.53;;;2.50;;
2187;SDS011;1100;52.014;8.540;2022-08-19T13:27:15;4.20;;;2.50;;
2187;SDS011;1100;52.014;8.540;2022-08-19T13:29:41;4.93;;;2.50;;
2187;SDS011;1100;52.014;8.540;2022-08-19T13:32:26;5.80;;;2.37;;
2187;SDS011;1100;52.014;8.540;2022-08-19T13:35:09;5.65;;;2.50;;
2187;SDS011;1100;52.014;8.540;2022-08-19T13:37:35;5.47;;;2.35;;
2187;SDS011;1100;52.014;8.540;2022-08-19T13:40:08;4.65;;;2.50;;
2187;SDS011;1100;52.014;8.540;2022-08-19T13:42:37;5.27;;;2.40;;
2187;SDS011;1100;52.014;8.540;2022-08-19T13:45:03;4.75;;;2.30;;
2187;SDS011;1100;52.014;8.540;2022-08-19T13:47:31;7.45;;;2.90;;
2187;SDS011;1100;52.014;8.540;2022-08-19T13:49:59;5.35;;;2.22;;
2187;SDS011;1100;52.014;8.540;2022-08-19T13:52:25;5.90;;;2.55;;
2187;SDS011;1100;52.014;8.540;2022-08-19T13:54:50;4.67;;;2.33;;
2187;SDS011;1100;52.014;8.540;2022-08-19T13:57:16;4.93;;;2.43;;
2187;SDS011;1100;52.014;8.540;2022-08-19T13:59:41;5.27;;;2.47;;
2187;SDS011;1100;52.014;8.540;2022-08-19T14:02:06;4.90;;;2.37;;
2187;SDS011;1100;52.014;8.540;2022-08-19T14:04:32;7.10;;;2.13;;
2187;SDS011;1100;52.014;8.540;2022-08-19T14:06:57;5.53;;;2.80;;
2187;SDS011;1100;52.014;8.540;2022-08-19T14:09:22;5.50;;;2.53;;
2187;SDS011;1100;52.014;8.540;2022-08-19T14:11:48;5.93;;;2.60;;
2187;SDS011;1100;52.014;8.540;2022-08-19T14:14:15;4.35;;;2.15;;
2187;SDS011;1100;52.014;8.540;2022-08-19T14:16:40;6.10;;;2.60;;
2187;SDS011;1100;52.014;8.540;2022-08-19T14:19:06;5.57;;;3.10;;
2187;SDS011;1100;52.014;8.540;2022-08-19T14:21:32;4.22;;;2.22;;
2187;SDS011;1100;52.014;8.540;2022-08-19T14:23:58;5.57;;;2.70;;
2187;SDS011;1100;52.014;8.540;2022-08-19T14:26:23;5.23;;;2.70;;
2187;SDS011;1100;52.014;8.540;2022-08-19T14:28:49;5.05;;;2.38;;
2187;SDS011;1100;52.014;8.540;2022-08-19T14:31:15;6.23;;;2.40;;
2187;SDS011;1100;52.014;8.540;2022-08-19T14:33:44;4.28;;;2.35;;
2187;SDS011;1100;52.014;8.540;2022-08-19T14:36:10;4.63;;;2.47;;
2187;SDS011;1100;52.014;8.540;2022-08-19T14:38:36;4.20;;;2.23;;
2187;SDS011;1100;52.014;8.540;2022-08-19T14:41:05;6.20;;;2.70;;
2187;SDS011;1100;52.014;8.540;2022-08-19T14:43:32;4.43;;;2.28;;
2187;SDS011;1100;52.014;8.540;2022-08-19T14:45:58;6.60;;;2.40;;
2187;SDS011;1100;52.014;8.540;2022-08-19T14:48:23;4.50;;;2.50;;
2187;SDS011;1100;52.014;8.540;2022-08-19T14:50:48;4.40;;;2.50;;
2187;SDS011;1100;52.014;8.540;2022-08-19T14:53:15;5.63;;;2.40;;
2187;SDS011;1100;52.014;8.540;2022-08-19T14:55:42;4.30;;;2.40;;
2187;SDS011;1100;52.014;8.540;2022-08-19T14:58:08;4.20;;;2.40;;
2187;SDS011;1100;52.014;8.540;2022-08-19T15:00:34;4.70;;;2.50;;
2187;SDS011;1100;52.014;8.540;2022-08-19T15:02:59;5.70;;;2.60;;
2187;SDS011;1100;52.014;8.540;2022-08-19T15:05:24;4.43;;;2.40;;
2187;SDS011;1100;52.014;8.540;2022-08-19T15:07:51;5.38;;;2.65;;
2187;SDS011;1100;52.014;8.540;2022-08-19T15:10:19;5.25;;;2.20;;
2187;SDS011;1100;52.014;8.540;2022-08-19T15:12:46;4.23;;;2.53;;
2187;SDS011;1100;52.014;8.540;2022-08-19T15:15:13;7.22;;;2.40;;
2187;SDS011;1100;52.014;8.540;2022-08-19T15:17:42;4.95;;;2.50;;
2187;SDS011;1100;52.014;8.540;2022-08-19T15:20:08;4.60;;;2.40;;
2187;SDS011;1100;52.014;8.540;2022-08-19T15:22:35;5.35;;;2.45;;